sensor_id;sensor_type;location;lat;lon;timestamp;pressure;altitude;pressure_sealevel;temperature;humidity
12897;BME280;6516;35.028;32.372;2024-01-27T00:02:00;99908.97;;;9.03;100.00
12897;BME280;6516;35.028;32.372;2024-01-27T00:04:30;99913.84;;;8.69;100.00
12897;BME280;6516;35.028;32.372;2024-01-27T00:07:04;99916.44;;;8.72;100.00
12897;BME280;6516;35.028;32.372;2024-01-27T00:09:34;99916.41;;;8.75;100.00
12897;BME280;6516;35.028;32.372;2024-01-27T00:12:04;99928.69;;;8.72;100.00
12897;BME280;6516;35.028;32.372;2024-01-27T00:14:40;99922.63;;;8.68;100.00
12897;BME280;6516;35.028;32.372;2024-01-27T00:17:10;99922.63;;;8.65;100.00
12897;BME280;6516;35.028;32.372;2024-01-27T00:19:39;99928.34;;;8.32;100.00
12897;BME280;6516;35.028;32.372;2024-01-27T00:22:07;99926.88;;;8.07;100.00
12897;BME280;6516;35.028;32.372;2024-01-27T00:24:37;99930.25;;;8.15;100.00
12897;BME280;6516;35.028;32.372;2024-01-27T00:27:05;99935.47;;;8.21;100.00
12897;BME280;6516;35.028;32.372;2024-01-27T00:29:35;99934.59;;;8.18;100.00
12897;BME280;6516;35.028;32.372;2024-01-27T00:32:05;99944.28;;;8.11;100.00
12897;BME280;6516;35.028;32.372;2024-01-27T00:34:34;99943.47;;;8.08;100.00
12897;BME280;6516;35.028;32.372;2024-01-27T00:37:07;99940.94;;;8.00;100.00
12897;BME280;6516;35.028;32.372;2024-01-27T00:39:42;99937.50;;;7.92;100.00
12897;BME280;6516;35.028;32.372;2024-01-27T00:42:13;99941.13;;;7.82;100.00
12897;BME280;6516;35.028;32.372;2024-01-27T00:44:49;99944.56;;;7.87;100.00
12897;BME280;6516;35.028;32.372;2024-01-27T00:47:19;99940.94;;;7.97;100.00
12897;BME280;6516;35.028;32.372;2024-01-27T00:49:51;99945.28;;;8.01;100.00
12897;BME280;6516;35.028;32.372;2024-01-27T00:52:22;99945.34;;;7.98;100.00
12897;BME280;6516;35.028;32.372;2024-01-27T00:54:55;99938.31;;;7.97;100.00
12897;BME280;6516;35.028;32.372;2024-01-27T00:57:23;99938.50;;;7.84;100.00
12897;BME280;6516;35.028;32.372;2024-01-27T01:00:07;99938.53;;;7.79;100.00
12897;BME280;6516;35.028;32.372;2024-01-27T01:02:37;99945.53;;;7.77;100.00
12897;BME280;6516;35.028;32.372;2024-01-27T01:05:09;99934.25;;;7.72;100.00
12897;BME280;6516;35.028;32.372;2024-01-27T01:07:37;99937.69;;;7.74;100.00
12897;BME280;6516;35.028;32.372;2024-01-27T01:10:06;99936.19;;;7.51;100.00
12897;BME280;6516;35.028;32.372;2024-01-27T01:12:36;99933.69;;;7.37;100.00
12897;BME280;6516;35.028;32.372;2024-01-27T01:15:14;99929.19;;;7.54;100.00
12897;BME280;6516;35.028;32.372;2024-01-27T01:17:45;99928.28;;;7.57;100.00
12897;BME280;6516;35.028;32.372;2024-01-27T01:20:17;99929.97;;;7.62;100.00
12897;BME280;6516;35.028;32.372;2024-01-27T01:22:51;99925.50;;;7.72;100.00
12897;BME280;6516;35.028;32.372;2024-01-27T01:25:33;99920.34;;;7.63;100.00
12897;BME280;6516;35.028;32.372;2024-01-27T01:28:05;99931.81;;;7.53;100.00
12897;BME280;6516;35.028;32.372;2024-01-27T01:30:36;99923.28;;;7.30;100.00
12897;BME280;6516;35.028;32.372;2024-01-27T01:33:04;99923.94;;;7.57;100.00
12897;BME280;6516;35.028;32.372;2024-01-27T01:35:33;99922.88;;;7.73;100.00
12897;BME280;6516;35.028;32.372;2024-01-27T01:38:07;99922.88;;;7.73;100.00
12897;BME280;6516;35.028;32.372;2024-01-27T01:40:37;99928.09;;;7.76;100.00
12897;BME280;6516;35.028;32.372;2024-01-27T01:43:12;99928.03;;;7.81;100.00
12897;BME280;6516;35.028;32.372;2024-01-27T01:45:41;99928.84;;;7.87;100.00
12897;BME280;6516;35.028;32.372;2024-01-27T01:48:11;99919.97;;;8.00;100.00
12897;BME280;6516;35.028;32.372;2024-01-27T01:50:43;99919.84;;;8.09;100.00
12897;BME280;6516;35.028;32.372;2024-01-27T01:53:22;99903.06;;;8.27;100.00
12897;BME280;6516;35.028;32.372;2024-01-27T01:55:51;99901.06;;;8.47;100.00
12897;BME280;6516;35.028;32.372;2024-01-27T01:58:21;99893.78;;;8.65;100.00
12897;BME280;6516;35.028;32.372;2024-01-27T02:01:02;99894.50;;;8.76;100.00
12897;BME280;6516;35.028;32.372;2024-01-27T02:03:32;99899.56;;;8.88;100.00
12897;BME280;6516;35.028;32.372;2024-01-27T02:06:06;99901.53;;;8.74;100.00
12897;BME280;6516;35.028;32.372;2024-01-27T02:08:36;99895.44;;;8.74;100.00
12897;BME280;6516;35.028;32.372;2024-01-27T02:11:08;99891.00;;;8.77;100.00
12897;BME280;6516;35.028;32.372;2024-01-27T02:13:41;99892.53;;;8.90;100.00
12897;BME280;6516;35.028;32.372;2024-01-27T02:16:10;99897.69;;;8.96;100.00
12897;BME280;6516;35.028;32.372;2024-01-27T02:18:47;99894.03;;;9.06;100.00
12897;BME280;6516;35.028;32.372;2024-01-27T02:21:22;99902.00;;;9.02;100.00
12897;BME280;6516;35.028;32.372;2024-01-27T02:23:58;99902.91;;;8.99;100.00
12897;BME280;6516;35.028;32.372;2024-01-27T02:26:28;99892.28;;;9.07;100.00
12897;BME280;6516;35.028;32.372;2024-01-27T02:28:56;99897.38;;;9.17;100.00
12897;BME280;6516;35.028;32.372;2024-01-27T02:31:29;99896.25;;;9.32;100.00
12897;BME280;6516;35.028;32.372;2024-01-27T02:33:57;99898.63;;;9.45;100.00
12897;BME280;6516;35.028;32.372;2024-01-27T02:36:25;99904.03;;;9.36;100.00
12897;BME280;6516;35.028;32.372;2024-01-27T02:38:55;99906.84;;;9.26;100.00
12897;BME280;6516;35.028;32.372;2024-01-27T02:41:26;99909.56;;;9.21;100.00
12897;BME280;6516;35.028;32.372;2024-01-27T02:43:57;99912.09;;;9.26;100.00
12897;BME280;6516;35.028;32.372;2024-01-27T02:46:30;99920.81;;;9.29;100.00
12897;BME280;6516;35.028;32.372;2024-01-27T02:48:58;99916.28;;;9.37;100.00
12897;BME280;6516;35.028;32.372;2024-01-27T02:51:27;99918.03;;;9.38;100.00
12897;BME280;6516;35.028;32.372;2024-01-27T02:54:04;99915.44;;;9.37;100.00
12897;BME280;6516;35.028;32.372;2024-01-27T02:56:34;99922.66;;;9.23;100.00
12897;BME280;6516;35.028;32.372;2024-01-27T02:59:04;99919.94;;;9.27;100.00
12897;BME280;6516;35.028;32.372;2024-01-27T03:01:37;99915.56;;;9.28;100.00
12897;BME280;6516;35.028;32.372;2024-01-27T03:04:06;99912.03;;;9.30;100.00
12897;BME280;6516;35.028;32.372;2024-01-27T03:06:36;99919.94;;;9.27;100.00
12897;BME280;6516;35.028;32.372;2024-01-27T03:09:07;99922.09;;;9.01;100.00
12897;BME280;6516;35.028;32.372;2024-01-27T03:11:39;99922.19;;;8.98;100.00
12897;BME280;6516;35.028;32.372;2024-01-27T03:14:09;99928.25;;;9.00;100.00
12897;BME280;6516;35.028;32.372;2024-01-27T03:16:41;99929.84;;;9.10;100.00
12897;BME280;6516;35.028;32.372;2024-01-27T03:19:12;99922.56;;;9.27;100.00
12897;BME280;6516;35.028;32.372;2024-01-27T03:21:45;99926.75;;;9.40;100.00
12897;BME280;6516;35.028;32.372;2024-01-27T03:24:13;99922.16;;;9.51;100.00
12897;BME280;6516;35.028;32.372;2024-01-27T03:26:47;99922.38;;;9.41;100.00
12897;BME280;6516;35.028;32.372;2024-01-27T03:29:17;99927.78;;;9.30;100.00
12897;BME280;6516;35.028;32.372;2024-01-27T03:31:47;99929.84;;;9.12;100.00
12897;BME280;6516;35.028;32.372;2024-01-27T03:34:18;99936.13;;;9.00;100.00
12897;BME280;6516;35.028;32.372;2024-01-27T03:36:50;99936.25;;;8.94;100.00
12897;BME280;6516;35.028;32.372;2024-01-27T03:39:25;99937.16;;;8.92;100.00
12897;BME280;6516;35.028;32.372;2024-01-27T03:41:54;99933.66;;;8.90;100.00
12897;BME280;6516;35.028;32.372;2024-01-27T03:44:28;99934.50;;;8.93;100.00
12897;BME280;6516;35.028;32.372;2024-01-27T03:47:00;99929.31;;;8.87;100.00
12897;BME280;6516;35.028;32.372;2024-01-27T03:49:28;99933.06;;;8.71;100.00
12897;BME280;6516;35.028;32.372;2024-01-27T03:51:58;99937.47;;;8.69;100.00
12897;BME280;6516;35.028;32.372;2024-01-27T03:54:28;99938.22;;;8.77;100.00
12897;BME280;6516;35.028;32.372;2024-01-27T03:57:03;99942.44;;;8.87;100.00
12897;BME280;6516;35.028;32.372;2024-01-27T03:59:31;99953.81;;;8.89;100.00
12897;BME280;6516;35.028;32.372;2024-01-27T04:02:02;99945.03;;;8.90;100.00
12897;BME280;6516;35.028;32.372;2024-01-27T04:04:32;99937.34;;;8.77;100.00
12897;BME280;6516;35.028;32.372;2024-01-27T04:07:05;99939.34;;;8.60;100.00
12897;BME280;6516;35.028;32.372;2024-01-27T04:09:33;99944.59;;;8.61;100.00
12897;BME280;6516;35.028;32.372;2024-01-27T04:12:05;99951.56;;;8.62;100.00
12897;BME280;6516;35.028;32.372;2024-01-27T04:14:38;99947.09;;;8.69;100.00
12897;BME280;6516;35.028;32.372;2024-01-27T04:17:05;99954.97;;;8.70;100.00
12897;BME280;6516;35.028;32.372;2024-01-27T04:19:35;99950.53;;;8.74;100.00
12897;BME280;6516;35.028;32.372;2024-01-27T04:22:05;99959.25;;;8.74;100.00
12897;BME280;6516;35.028;32.372;2024-01-27T04:24:33;99960.91;;;8.81;100.00
12897;BME280;6516;35.028;32.372;2024-01-27T04:27:10;99958.94;;;8.97;100.00
12897;BME280;6516;35.028;32.372;2024-01-27T04:29:38;99962.25;;;9.09;100.00
12897;BME280;6516;35.028;32.372;2024-01-27T04:32:10;99976.94;;;9.22;100.00
12897;BME280;6516;35.028;32.372;2024-01-27T04:34:38;99972.59;;;9.21;100.00
12897;BME280;6516;35.028;32.372;2024-01-27T04:37:16;99969.06;;;9.22;100.00
12897;BME280;6516;35.028;32.372;2024-01-27T04:39:43;99976.00;;;9.26;100.00
12897;BME280;6516;35.028;32.372;2024-01-27T04:42:15;99988.19;;;9.32;100.00
12897;BME280;6516;35.028;32.372;2024-01-27T04:44:53;99984.72;;;9.28;100.00
12897;BME280;6516;35.028;32.372;2024-01-27T04:47:26;99990.97;;;9.21;100.00
12897;BME280;6516;35.028;32.372;2024-01-27T04:49:56;99991.03;;;9.15;100.00
12897;BME280;6516;35.028;32.372;2024-01-27T04:52:24;99998.13;;;9.10;100.00
12897;BME280;6516;35.028;32.372;2024-01-27T04:54:54;100005.72;;;9.30;100.00
12897;BME280;6516;35.028;32.372;2024-01-27T04:57:25;100003.88;;;9.36;100.00
12897;BME280;6516;35.028;32.372;2024-01-27T04:59:56;100008.88;;;9.51;100.00
12897;BME280;6516;35.028;32.372;2024-01-27T05:02:25;100012.22;;;9.62;100.00
12897;BME280;6516;35.028;32.372;2024-01-27T05:04:56;100003.22;;;9.75;100.00
12897;BME280;6516;35.028;32.372;2024-01-27T05:07:26;100012.72;;;9.82;100.00
12897;BME280;6516;35.028;32.372;2024-01-27T05:09:56;100010.19;;;9.78;100.00
12897;BME280;6516;35.028;32.372;2024-01-27T05:12:30;100016.25;;;9.81;100.00
12897;BME280;6516;35.028;32.372;2024-01-27T05:14:58;100018.63;;;9.96;100.00
12897;BME280;6516;35.028;32.372;2024-01-27T05:17:26;100015.47;;;10.26;100.00
12897;BME280;6516;35.028;32.372;2024-01-27T05:19:57;100022.28;;;10.38;100.00
12897;BME280;6516;35.028;32.372;2024-01-27T05:22:31;100020.19;;;10.55;100.00
12897;BME280;6516;35.028;32.372;2024-01-27T05:24:59;100015.34;;;10.76;100.00
12897;BME280;6516;35.028;32.372;2024-01-27T05:27:32;100016.84;;;10.88;100.00
12897;BME280;6516;35.028;32.372;2024-01-27T05:29:59;100024.69;;;10.93;100.00
12897;BME280;6516;35.028;32.372;2024-01-27T05:32:33;100033.38;;;10.96;100.00
12897;BME280;6516;35.028;32.372;2024-01-27T05:35:05;100042.00;;;11.02;100.00
12897;BME280;6516;35.028;32.372;2024-01-27T05:37:42;100042.63;;;11.13;100.00
12897;BME280;6516;35.028;32.372;2024-01-27T05:40:12;100054.84;;;11.18;100.00
12897;BME280;6516;35.028;32.372;2024-01-27T05:42:50;100060.91;;;11.21;100.00
12897;BME280;6516;35.028;32.372;2024-01-27T05:45:19;100073.22;;;11.22;100.00
12897;BME280;6516;35.028;32.372;2024-01-27T05:47:48;100074.00;;;11.26;100.00
12897;BME280;6516;35.028;32.372;2024-01-27T05:50:16;100084.44;;;11.28;100.00
12897;BME280;6516;35.028;32.372;2024-01-27T05:52:45;100084.56;;;11.24;100.00
12897;BME280;6516;35.028;32.372;2024-01-27T05:55:19;100079.31;;;11.23;100.00
12897;BME280;6516;35.028;32.372;2024-01-27T05:57:55;100081.88;;;11.27;100.00
12897;BME280;6516;35.028;32.372;2024-01-27T06:00:28;100094.19;;;11.25;100.00
12897;BME280;6516;35.028;32.372;2024-01-27T06:02:59;100100.16;;;11.35;100.00
12897;BME280;6516;35.028;32.372;2024-01-27T06:05:27;100106.13;;;11.43;100.00
12897;BME280;6516;35.028;32.372;2024-01-27T06:07:54;100114.53;;;11.60;100.00
12897;BME280;6516;35.028;32.372;2024-01-27T06:10:24;100113.31;;;11.76;100.00
12897;BME280;6516;35.028;32.372;2024-01-27T06:12:56;100115.81;;;11.80;100.00
12897;BME280;6516;35.028;32.372;2024-01-27T06:15:24;100116.53;;;11.87;100.00
12897;BME280;6516;35.028;32.372;2024-01-27T06:17:57;100116.50;;;11.90;100.00
12897;BME280;6516;35.028;32.372;2024-01-27T06:20:29;100123.28;;;12.00;100.00
12897;BME280;6516;35.028;32.372;2024-01-27T06:23:03;100130.38;;;11.98;100.00
12897;BME280;6516;35.028;32.372;2024-01-27T06:25:34;100126.75;;;12.02;100.00
12897;BME280;6516;35.028;32.372;2024-01-27T06:28:06;100130.94;;;12.10;100.00
12897;BME280;6516;35.028;32.372;2024-01-27T06:30:37;100124.50;;;12.22;100.00
12897;BME280;6516;35.028;32.372;2024-01-27T06:33:08;100131.94;;;12.40;100.00
12897;BME280;6516;35.028;32.372;2024-01-27T06:35:38;100131.50;;;12.56;100.00
12897;BME280;6516;35.028;32.372;2024-01-27T06:38:06;100136.09;;;12.82;100.00
12897;BME280;6516;35.028;32.372;2024-01-27T06:40:48;100129.66;;;12.92;100.00
12897;BME280;6516;35.028;32.372;2024-01-27T06:43:27;100140.22;;;12.92;100.00
12897;BME280;6516;35.028;32.372;2024-01-27T06:46:20;100139.13;;;13.02;100.00
12897;BME280;6516;35.028;32.372;2024-01-27T06:48:52;100150.22;;;13.13;100.00
12897;BME280;6516;35.028;32.372;2024-01-27T06:51:28;100155.69;;;13.37;100.00
12897;BME280;6516;35.028;32.372;2024-01-27T06:53:58;100148.09;;;13.56;100.00
12897;BME280;6516;35.028;32.372;2024-01-27T06:56:26;100156.34;;;13.74;100.00
12897;BME280;6516;35.028;32.372;2024-01-27T06:58:55;100150.94;;;14.05;100.00
12897;BME280;6516;35.028;32.372;2024-01-27T07:01:35;100151.78;;;14.07;99.13
12897;BME280;6516;35.028;32.372;2024-01-27T07:04:03;100159.25;;;13.94;98.53
12897;BME280;6516;35.028;32.372;2024-01-27T07:06:31;100159.88;;;14.01;100.00
12897;BME280;6516;35.028;32.372;2024-01-27T07:09:20;100158.59;;;14.14;98.58
12897;BME280;6516;35.028;32.372;2024-01-27T07:11:56;100153.34;;;14.40;99.46
12897;BME280;6516;35.028;32.372;2024-01-27T07:14:28;100155.25;;;14.62;94.75
12897;BME280;6516;35.028;32.372;2024-01-27T07:16:57;100163.47;;;15.04;93.28
12897;BME280;6516;35.028;32.372;2024-01-27T07:19:34;100170.59;;;15.03;88.02
12897;BME280;6516;35.028;32.372;2024-01-27T07:22:02;100170.31;;;15.11;84.58
12897;BME280;6516;35.028;32.372;2024-01-27T07:24:35;100169.91;;;15.46;82.27
12897;BME280;6516;35.028;32.372;2024-01-27T07:27:03;100174.00;;;15.54;75.65
12897;BME280;6516;35.028;32.372;2024-01-27T07:29:35;100180.06;;;15.81;65.26
12897;BME280;6516;35.028;32.372;2024-01-27T07:32:03;100182.22;;;16.16;65.86
12897;BME280;6516;35.028;32.372;2024-01-27T07:34:33;100185.16;;;16.30;60.27
12897;BME280;6516;35.028;32.372;2024-01-27T07:37:13;100186.19;;;16.49;58.08
12897;BME280;6516;35.028;32.372;2024-01-27T07:39:44;100188.16;;;16.44;57.20
12897;BME280;6516;35.028;32.372;2024-01-27T07:42:12;100186.63;;;16.60;57.98
12897;BME280;6516;35.028;32.372;2024-01-27T07:44:41;100196.59;;;16.55;55.29
12897;BME280;6516;35.028;32.372;2024-01-27T07:47:26;100199.25;;;16.75;51.94
12897;BME280;6516;35.028;32.372;2024-01-27T07:50:18;100197.13;;;16.41;55.28
12897;BME280;6516;35.028;32.372;2024-01-27T07:52:58;100203.34;;;16.19;53.97
12897;BME280;6516;35.028;32.372;2024-01-27T07:55:26;100205.06;;;15.98;54.90
12897;BME280;6516;35.028;32.372;2024-01-27T07:57:54;100202.47;;;16.18;54.49
12897;BME280;6516;35.028;32.372;2024-01-27T08:00:23;100202.69;;;16.57;53.59
12897;BME280;6516;35.028;32.372;2024-01-27T08:02:51;100202.47;;;16.61;51.42
12897;BME280;6516;35.028;32.372;2024-01-27T08:05:19;100210.63;;;16.78;53.81
12897;BME280;6516;35.028;32.372;2024-01-27T08:07:46;100210.19;;;16.89;55.02
12897;BME280;6516;35.028;32.372;2024-01-27T08:10:14;100198.47;;;16.73;52.51
12897;BME280;6516;35.028;32.372;2024-01-27T08:12:44;100206.81;;;16.42;50.15
12897;BME280;6516;35.028;32.372;2024-01-27T08:15:12;100203.41;;;16.17;51.66
12897;BME280;6516;35.028;32.372;2024-01-27T08:17:41;100208.75;;;15.94;54.62
12897;BME280;6516;35.028;32.372;2024-01-27T08:20:12;100210.19;;;15.80;62.13
12897;BME280;6516;35.028;32.372;2024-01-27T08:22:42;100205.38;;;15.43;58.80
12897;BME280;6516;35.028;32.372;2024-01-27T08:25:10;100202.09;;;15.37;60.22
12897;BME280;6516;35.028;32.372;2024-01-27T08:27:38;100205.56;;;15.39;63.28
12897;BME280;6516;35.028;32.372;2024-01-27T08:30:07;100202.78;;;15.42;62.37
12897;BME280;6516;35.028;32.372;2024-01-27T08:32:52;100214.91;;;15.49;63.68
12897;BME280;6516;35.028;32.372;2024-01-27T08:35:38;100221.03;;;15.51;63.05
12897;BME280;6516;35.028;32.372;2024-01-27T08:38:08;100225.97;;;15.37;56.31
12897;BME280;6516;35.028;32.372;2024-01-27T08:40:57;100222.31;;;15.15;58.22
12897;BME280;6516;35.028;32.372;2024-01-27T08:43:25;100218.03;;;15.11;59.49
12897;BME280;6516;35.028;32.372;2024-01-27T08:45:52;100223.44;;;15.32;61.97
12897;BME280;6516;35.028;32.372;2024-01-27T08:48:22;100217.84;;;15.87;61.35
12897;BME280;6516;35.028;32.372;2024-01-27T08:50:50;100218.06;;;16.49;58.80
12897;BME280;6516;35.028;32.372;2024-01-27T08:53:18;100213.19;;;17.21;54.05
12897;BME280;6516;35.028;32.372;2024-01-27T08:55:46;100204.66;;;17.92;52.49
12897;BME280;6516;35.028;32.372;2024-01-27T08:58:15;100207.53;;;18.43;51.68
12897;BME280;6516;35.028;32.372;2024-01-27T09:00:43;100200.19;;;18.65;51.10
12897;BME280;6516;35.028;32.372;2024-01-27T09:03:24;100207.59;;;18.77;50.23
12897;BME280;6516;35.028;32.372;2024-01-27T09:05:52;100205.41;;;18.68;47.84
12897;BME280;6516;35.028;32.372;2024-01-27T09:08:29;100196.78;;;18.44;49.17
12897;BME280;6516;35.028;32.372;2024-01-27T09:10:56;100205.00;;;18.21;51.47
12897;BME280;6516;35.028;32.372;2024-01-27T09:13:24;100206.94;;;17.81;51.52
12897;BME280;6516;35.028;32.372;2024-01-27T09:15:52;100208.94;;;17.57;53.74
12897;BME280;6516;35.028;32.372;2024-01-27T09:18:21;100217.28;;;17.68;55.21
12897;BME280;6516;35.028;32.372;2024-01-27T09:20:49;100212.59;;;17.55;54.08
12897;BME280;6516;35.028;32.372;2024-01-27T09:23:17;100211.44;;;17.60;53.81
12897;BME280;6516;35.028;32.372;2024-01-27T09:25:45;100189.09;;;17.83;55.30
12897;BME280;6516;35.028;32.372;2024-01-27T09:28:12;100189.88;;;17.85;58.62
12897;BME280;6516;35.028;32.372;2024-01-27T09:30:41;100183.41;;;18.09;58.63
12897;BME280;6516;35.028;32.372;2024-01-27T09:33:09;100181.78;;;18.23;56.13
12897;BME280;6516;35.028;32.372;2024-01-27T09:36:02;100184.03;;;18.51;55.68
12897;BME280;6516;35.028;32.372;2024-01-27T09:38:31;100165.38;;;18.68;54.35
12897;BME280;6516;35.028;32.372;2024-01-27T09:41:01;100177.81;;;18.50;51.20
12897;BME280;6516;35.028;32.372;2024-01-27T09:43:30;100177.22;;;18.62;50.05
12897;BME280;6516;35.028;32.372;2024-01-27T09:45:58;100185.69;;;18.35;49.93
12897;BME280;6516;35.028;32.372;2024-01-27T09:48:27;100185.41;;;18.04;53.14
12897;BME280;6516;35.028;32.372;2024-01-27T09:50:58;100181.53;;;17.92;52.68
12897;BME280;6516;35.028;32.372;2024-01-27T09:53:28;100188.25;;;18.01;51.50
12897;BME280;6516;35.028;32.372;2024-01-27T09:55:57;100193.34;;;18.24;51.53
12897;BME280;6516;35.028;32.372;2024-01-27T09:58:29;100186.19;;;18.43;51.50
12897;BME280;6516;35.028;32.372;2024-01-27T10:01:35;100187.63;;;18.31;48.79
12897;BME280;6516;35.028;32.372;2024-01-27T10:04:22;100186.69;;;18.32;48.91
12897;BME280;6516;35.028;32.372;2024-01-27T10:06:50;100186.34;;;18.21;49.57
12897;BME280;6516;35.028;32.372;2024-01-27T10:09:20;100185.03;;;18.30;48.61
12897;BME280;6516;35.028;32.372;2024-01-27T10:11:48;100190.66;;;18.05;47.92
12897;BME280;6516;35.028;32.372;2024-01-27T10:14:16;100178.28;;;18.04;48.04
12897;BME280;6516;35.028;32.372;2024-01-27T10:16:45;100187.88;;;18.27;47.65
12897;BME280;6516;35.028;32.372;2024-01-27T10:19:15;100197.16;;;18.37;46.93
12897;BME280;6516;35.028;32.372;2024-01-27T10:21:44;100189.00;;;18.40;47.30
12897;BME280;6516;35.028;32.372;2024-01-27T10:24:12;100194.91;;;18.28;47.00
12897;BME280;6516;35.028;32.372;2024-01-27T10:26:41;100197.00;;;18.03;46.67
12897;BME280;6516;35.028;32.372;2024-01-27T10:29:09;100199.03;;;17.98;47.05
12897;BME280;6516;35.028;32.372;2024-01-27T10:31:37;100193.06;;;17.93;48.08
12897;BME280;6516;35.028;32.372;2024-01-27T10:34:04;100206.34;;;17.74;48.73
12897;BME280;6516;35.028;32.372;2024-01-27T10:36:41;100210.78;;;17.55;49.47
12897;BME280;6516;35.028;32.372;2024-01-27T10:39:20;100215.69;;;17.64;49.83
12897;BME280;6516;35.028;32.372;2024-01-27T10:44:43;100210.75;;;17.94;47.47
12897;BME280;6516;35.028;32.372;2024-01-27T10:47:14;100204.03;;;17.67;49.05
12897;BME280;6516;35.028;32.372;2024-01-27T10:49:48;100202.78;;;17.75;49.82
12897;BME280;6516;35.028;32.372;2024-01-27T10:52:18;100187.50;;;17.97;50.13
12897;BME280;6516;35.028;32.372;2024-01-27T10:54:49;100178.94;;;18.09;49.25
12897;BME280;6516;35.028;32.372;2024-01-27T10:57:20;100176.09;;;18.31;47.97
12897;BME280;6516;35.028;32.372;2024-01-27T10:59:49;100184.75;;;18.36;47.28
12897;BME280;6516;35.028;32.372;2024-01-27T11:02:18;100188.09;;;18.41;46.05
12897;BME280;6516;35.028;32.372;2024-01-27T11:04:49;100192.31;;;18.45;44.42
12897;BME280;6516;35.028;32.372;2024-01-27T11:07:19;100196.16;;;18.39;43.46
12897;BME280;6516;35.028;32.372;2024-01-27T11:09:51;100190.25;;;18.33;47.45
12897;BME280;6516;35.028;32.372;2024-01-27T11:12:21;100200.53;;;17.85;45.49
12897;BME280;6516;35.028;32.372;2024-01-27T11:14:49;100199.63;;;17.27;46.24
12897;BME280;6516;35.028;32.372;2024-01-27T11:17:21;100204.25;;;16.82;48.93
12897;BME280;6516;35.028;32.372;2024-01-27T11:19:56;100207.56;;;16.87;49.19
12897;BME280;6516;35.028;32.372;2024-01-27T11:22:29;100206.41;;;17.14;49.71
12897;BME280;6516;35.028;32.372;2024-01-27T11:25:09;100210.97;;;17.31;49.31
12897;BME280;6516;35.028;32.372;2024-01-27T11:28:12;100202.56;;;17.41;48.19
12897;BME280;6516;35.028;32.372;2024-01-27T11:30:46;100220.19;;;17.24;46.34
12897;BME280;6516;35.028;32.372;2024-01-27T11:33:15;100203.56;;;17.19;44.80
12897;BME280;6516;35.028;32.372;2024-01-27T11:35:44;100206.53;;;17.31;45.07
12897;BME280;6516;35.028;32.372;2024-01-27T11:38:12;100199.97;;;17.40;44.89
12897;BME280;6516;35.028;32.372;2024-01-27T11:40:46;100193.31;;;17.50;45.13
12897;BME280;6516;35.028;32.372;2024-01-27T11:43:16;100195.41;;;17.62;45.65
12897;BME280;6516;35.028;32.372;2024-01-27T11:45:55;100208.34;;;17.69;45.70
12897;BME280;6516;35.028;32.372;2024-01-27T11:48:23;100197.94;;;17.83;47.56
12897;BME280;6516;35.028;32.372;2024-01-27T11:51:03;100200.81;;;17.97;46.20
12897;BME280;6516;35.028;32.372;2024-01-27T11:53:33;100205.13;;;18.18;44.45
12897;BME280;6516;35.028;32.372;2024-01-27T11:56:01;100202.97;;;18.08;43.78
12897;BME280;6516;35.028;32.372;2024-01-27T11:58:31;100200.19;;;18.11;43.22
12897;BME280;6516;35.028;32.372;2024-01-27T12:00:59;100205.94;;;18.02;42.63
12897;BME280;6516;35.028;32.372;2024-01-27T12:03:27;100196.84;;;18.24;44.14
12897;BME280;6516;35.028;32.372;2024-01-27T12:05:56;100211.84;;;18.27;43.70
12897;BME280;6516;35.028;32.372;2024-01-27T12:08:24;100214.97;;;18.18;43.52
12897;BME280;6516;35.028;32.372;2024-01-27T12:10:53;100212.22;;;18.01;42.20
12897;BME280;6516;35.028;32.372;2024-01-27T12:13:22;100204.19;;;17.82;42.20
12897;BME280;6516;35.028;32.372;2024-01-27T12:15:51;100201.66;;;17.61;44.55
12897;BME280;6516;35.028;32.372;2024-01-27T12:18:19;100201.44;;;17.65;45.75
12897;BME280;6516;35.028;32.372;2024-01-27T12:20:46;100195.41;;;17.62;46.65
12897;BME280;6516;35.028;32.372;2024-01-27T12:23:14;100207.41;;;17.52;45.41
12897;BME280;6516;35.028;32.372;2024-01-27T12:25:42;100206.34;;;17.56;45.94
12897;BME280;6516;35.028;32.372;2024-01-27T12:28:23;100220.19;;;17.64;47.35
12897;BME280;6516;35.028;32.372;2024-01-27T12:30:55;100219.38;;;17.62;46.73
12897;BME280;6516;35.028;32.372;2024-01-27T12:33:23;100220.78;;;17.50;46.29
12897;BME280;6516;35.028;32.372;2024-01-27T12:35:54;100228.41;;;17.38;46.79
12897;BME280;6516;35.028;32.372;2024-01-27T12:38:25;100232.94;;;17.16;45.91
12897;BME280;6516;35.028;32.372;2024-01-27T12:40:57;100235.38;;;17.20;46.04
12897;BME280;6516;35.028;32.372;2024-01-27T12:43:27;100238.78;;;17.04;44.95
12897;BME280;6516;35.028;32.372;2024-01-27T12:45:57;100235.59;;;16.74;44.66
12897;BME280;6516;35.028;32.372;2024-01-27T12:48:33;100239.66;;;16.41;45.60
12897;BME280;6516;35.028;32.372;2024-01-27T12:51:03;100248.56;;;16.39;48.02
12897;BME280;6516;35.028;32.372;2024-01-27T12:53:31;100246.25;;;16.53;47.36
12897;BME280;6516;35.028;32.372;2024-01-27T12:55:58;100248.66;;;16.59;47.77
12897;BME280;6516;35.028;32.372;2024-01-27T12:58:26;100243.44;;;16.57;47.38
12897;BME280;6516;35.028;32.372;2024-01-27T13:00:54;100249.16;;;16.68;47.75
12897;BME280;6516;35.028;32.372;2024-01-27T13:03:24;100245.13;;;16.80;46.68
12897;BME280;6516;35.028;32.372;2024-01-27T13:05:53;100252.31;;;16.56;47.04
12897;BME280;6516;35.028;32.372;2024-01-27T13:08:21;100246.75;;;16.41;47.28
12897;BME280;6516;35.028;32.372;2024-01-27T13:10:48;100253.25;;;16.32;47.81
12897;BME280;6516;35.028;32.372;2024-01-27T13:13:16;100249.19;;;16.24;46.64
12897;BME280;6516;35.028;32.372;2024-01-27T13:15:44;100243.94;;;16.22;47.18
12897;BME280;6516;35.028;32.372;2024-01-27T13:18:12;100251.03;;;16.22;45.79